SAAJ/JNI METAR and TAF weather

Enter ICAO airport designator
Station Type Date Time Source
SAAJ METAR 2022/05/12 06:00 UTC NOAA

SAAJ 120600Z 05002KT CAVOK 07/05 Q1020


Station Type Date Time Source
SAAJ Decoded METAR 2022/05/12 06:00 UTC NOAA

Junin Aerodrome, Argentina (SAAJ) 34-33S 060-55W 81M
May 12, 2022 - 02:00 AM EDT / 2022.05.12 0600 UTC
Wind: from the NE (050 degrees) at 2 MPH (2 KT):0
Visibility: greater than 7 mile(s):0
Temperature: 44 F (7 C)
Dew Point: 41 F (5 C)
Relative Humidity: 87%
Pressure (altimeter): 30.12 in. Hg (1020 hPa)
ob: SAAJ 120600Z 05002KT CAVOK 07/05 Q1020
cycle: 6

Station Type Date Time Source
SAAJ TAF UTC NOAA

Error!

Example: see airport list